LEAL Airport Information

Runway Information
Runway 10 Length 9842 ft width 148 ft
Elevation 142 ft Threshold 0 ft Heading 100
Runway 28 Length 9842 ft Width 148 ft
Elevation 44 ft Threshold 0 ft Heading 280
Airport Frequencies
Type APP Name APP Frequency 118.8 MHZ
Type ATIS Name ATIS Frequency 113.8 MHZ
Type GND Name GND Frequency 121.7 MHZ
Type TWR Name TWR Frequency 118.15 MHZ
Airport Navaids
Type VOR-DME Name Alicante Frequency 113800 KHZ
Type VOR-DME Name Alicante Frequency 114650 KHZ
Airport Weather Information & NOTAM
ADDS - METARS form results

(1850 UTC 28 January 2020)
Data provider http://aviationweather.gov/metar/data/
 
METAR text: LEAL 281830Z 29005KT 9999 FEW025 16/09 Q1022 NOSIG
Conditions at: LEAL (ALICANTE/EL ALTE, ES) observed 1830 UTC 28 January 2020
Temperature: 16.0°C (61°F)
Dewpoint: 9.0°C (48°F) [RH = 63%]
Pressure (altimeter): 30.18 inches Hg (1022.0 mb)
Winds: from the WNW (290 degrees) at 6 MPH (5 knots; 2.6 m/s)
Visibility: 6 or more miles (10+ km)
Ceiling: at least 12,000 feet AGL
Clouds: few clouds at 2500 feet AGL
Weather: no significant weather observed at this time

METAR text: LEAL 281800Z 30008KT 9999 FEW025 17/09 Q1022 NOSIG
Conditions at: LEAL (ALICANTE/EL ALTE, ES) observed 1800 UTC 28 January 2020
Temperature: 17.0°C (63°F)
Dewpoint: 9.0°C (48°F) [RH = 59%]
Pressure (altimeter): 30.18 inches Hg (1022.0 mb)
Winds: from the WNW (300 degrees) at 9 MPH (8 knots; 4.1 m/s)
Visibility: 6 or more miles (10+ km)
Ceiling: at least 12,000 feet AGL
Clouds: few clouds at 2500 feet AGL
Weather: no significant weather observed at this time

Forecast for: LEAL (ALICANTE/EL ALTE, ES)
Text: TAF LEAL 281700Z 2818/2918 27009KT 9999 FEW020 TX21/2912Z TN11/2906Z
Forecast period: 1800 UTC 28 January 2020 to 1800 UTC 29 January 2020
Forecast type: FROM: standard forecast or significant change
Winds: from the W (270 degrees) at 10 MPH (9 knots; 4.6 m/s)
Visibility: 6 or more miles 10+ km)
Ceiling: at least 12,000 feet AGL
Clouds: few clouds at 2000 feet AGL
Weather: no significant weather forecast for this period